Hawks, Michigan
Current Conditions -  °F | °C
As of 2:55 PM on Sunday 23 Nov 2014 (Local Time) from KPZQ Reporting Station
Overcast Overcast  
Wind Chill: 47°   Ceiling: 1900
Heat Index: 49°   Visibility: 10mi
Dew Point: 47°   Wind: 5mph
Humidity: 91%   Direction: 170°S
Pressure: 29.66"   Gusts: NA
Location:  45.3°N, 83.89°W
Report Text: KPZQ 231955Z AUTO 17004KT 10SM OVC019 10/08 A2966 RMK AO2 T00950081
Loading
Personal Weather Stations






























Interactive Weather Map New forecast layout! Learn more

10-Day Weather Forecast

Advertisements
Track Severe Weather on mobile